createdAt,value
2023-03-22T00:00:58.922Z,100898.81
2023-03-22T00:05:58.398Z,100905.44
2023-03-22T00:10:54.858Z,100898.97
2023-03-22T00:15:51.501Z,100887.06
2023-03-22T00:20:53.054Z,100879.63
2023-03-22T00:25:49.719Z,100875.19
2023-03-22T00:30:56.357Z,100856.66
2023-03-22T00:35:54.877Z,100854.94
2023-03-22T00:40:51.360Z,100857.41
2023-03-22T00:45:47.857Z,100846.97
2023-03-22T00:50:50.882Z,100854.75
2023-03-22T00:55:47.522Z,100844.88
2023-03-22T01:00:45.041Z,100847.13
2023-03-22T01:05:42.030Z,100829.66
2023-03-22T01:10:40.410Z,100840.75
2023-03-22T01:15:37.733Z,100823.88
2023-03-22T01:20:35.207Z,100826.00
2023-03-22T01:25:31.757Z,100811.88
2023-03-22T01:30:29.366Z,100806.56
2023-03-22T01:35:25.917Z,100809.03
2023-03-22T01:40:22.377Z,100804.66
2023-03-22T01:45:37.652Z,100793.19
2023-03-22T01:50:34.885Z,100788.81
2023-03-22T01:55:33.188Z,100781.91
2023-03-22T02:00:29.669Z,100779.34
2023-03-22T02:05:27.112Z,100766.91
2023-03-22T02:10:26.774Z,100758.09
2023-03-22T02:15:43.902Z,100766.81
2023-03-22T02:21:11.068Z,100752.69
2023-03-22T02:26:39.106Z,100751.91
2023-03-22T02:32:01.098Z,100749.56
2023-03-22T02:37:09.217Z,100747.84
2023-03-22T02:42:25.732Z,100733.81
2023-03-22T02:47:41.458Z,100725.31
2023-03-22T02:52:42.507Z,100726.81
2023-03-22T02:58:02.717Z,100728.72
2023-03-22T03:03:11.166Z,100714.91
2023-03-22T03:08:08.723Z,100716.50
2023-03-22T03:13:18.852Z,100715.56
2023-03-22T03:18:18.180Z,100708.53
2023-03-22T03:23:42.104Z,100705.03
2023-03-22T03:28:46.561Z,100707.47
2023-03-22T03:33:54.501Z,100708.22
2023-03-22T03:38:52.733Z,100696.63
2023-03-22T03:43:49.429Z,100695.69
2023-03-22T03:48:46.914Z,100690.28
2023-03-22T03:53:43.346Z,100681.34
2023-03-22T03:58:39.810Z,100688.34
2023-03-22T04:03:36.436Z,100682.72
2023-03-22T04:08:32.867Z,100680.94
2023-03-22T04:13:29.832Z,100684.13
2023-03-22T04:18:29.563Z,100682.31
2023-03-22T04:23:26.031Z,100666.03
2023-03-22T04:28:23.993Z,100687.28
2023-03-22T04:33:22.670Z,100675.81
2023-03-22T04:38:20.028Z,100662.97
2023-03-22T04:43:18.976Z,100676.66
2023-03-22T04:48:15.503Z,100668.59
2023-03-22T04:53:12.380Z,100663.59
2023-03-22T04:58:08.939Z,100659.13
2023-03-22T05:03:05.733Z,100658.38
2023-03-22T05:08:02.110Z,100670.84
2023-03-22T05:12:58.539Z,100654.25
2023-03-22T05:17:55.680Z,100662.88
2023-03-22T05:22:56.735Z,100655.84
2023-03-22T05:28:01.654Z,100647.56
2023-03-22T05:33:03.638Z,100651.16
2023-03-22T05:38:00.310Z,100659.56
2023-03-22T05:42:57.158Z,100661.97
2023-03-22T05:47:53.703Z,100668.72
2023-03-22T05:52:52.066Z,100666.59
2023-03-22T05:57:53.699Z,100658.69
2023-03-22T06:02:52.382Z,100647.50
